createdAt,value
2023-03-14T00:01:24.358Z,11.06
2023-03-14T00:03:51.536Z,11.47
2023-03-14T00:06:21.351Z,13.04
2023-03-14T00:08:48.647Z,12.36
2023-03-14T00:11:18.824Z,11.41
2023-03-14T00:13:52.118Z,10.73
2023-03-14T00:16:20.522Z,10.98
2023-03-14T00:18:47.844Z,12.62
2023-03-14T00:21:14.942Z,12.19
2023-03-14T00:23:43.265Z,11.28
2023-03-14T00:26:13.596Z,10.62
2023-03-14T00:28:42.268Z,10.71
2023-03-14T00:31:12.536Z,12.31
2023-03-14T00:33:40.539Z,12.11
2023-03-14T00:36:10.745Z,11.23
2023-03-14T00:38:39.141Z,10.56
2023-03-14T00:41:13.056Z,10.14
2023-03-14T00:43:40.464Z,11.04
2023-03-14T00:46:07.998Z,12.63
2023-03-14T00:48:35.820Z,12.09
2023-03-14T00:51:04.580Z,11.17
2023-03-14T00:53:31.436Z,10.51
2023-03-14T00:55:58.342Z,10.05
2023-03-14T00:58:25.332Z,10.73
2023-03-14T01:00:52.257Z,12.39
2023-03-14T01:03:19.081Z,11.98
2023-03-14T01:05:46.073Z,11.02
2023-03-14T01:08:13.058Z,10.31
2023-03-14T01:10:41.496Z,9.83
2023-03-14T01:13:09.986Z,10.72
2023-03-14T01:15:38.583Z,11.80
2023-03-14T01:18:05.751Z,11.08
2023-03-14T01:20:32.680Z,10.33
2023-03-14T01:22:59.497Z,9.78
2023-03-14T01:25:26.568Z,9.59
2023-03-14T01:27:53.564Z,11.03
2023-03-14T01:30:20.587Z,11.16
2023-03-14T01:32:47.443Z,10.45
2023-03-14T01:35:14.451Z,9.83
2023-03-14T01:37:41.447Z,9.39
2023-03-14T01:40:12.960Z,9.20
2023-03-14T01:42:45.397Z,10.69
2023-03-14T01:45:49.796Z,11.40
2023-03-14T01:48:16.707Z,10.53
2023-03-14T01:50:43.757Z,9.94
2023-03-14T01:53:10.783Z,9.52
2023-03-14T01:55:38.650Z,9.22
2023-03-14T01:58:06.252Z,9.02
2023-03-14T02:00:33.199Z,8.85
2023-03-14T02:03:06.921Z,8.72
2023-03-14T02:05:39.051Z,9.35
2023-03-14T02:08:20.961Z,11.36
2023-03-14T02:10:52.797Z,10.97
2023-03-14T02:13:25.194Z,10.22
2023-03-14T02:17:07.291Z,9.62
2023-03-14T02:20:12.897Z,9.09
2023-03-14T02:22:45.376Z,8.87
2023-03-14T02:25:23.801Z,8.67
2023-03-14T02:27:51.263Z,8.57
2023-03-14T02:30:23.745Z,10.31
2023-03-14T02:32:59.508Z,11.11
2023-03-14T02:35:30.994Z,10.27
2023-03-14T02:38:16.112Z,9.56
2023-03-14T02:40:45.412Z,8.99
2023-03-14T02:43:12.534Z,8.68
2023-03-14T02:45:44.037Z,8.44
2023-03-14T02:48:22.288Z,8.64
2023-03-14T02:50:53.358Z,10.68
2023-03-14T02:53:27.587Z,10.54
2023-03-14T02:55:55.636Z,9.67
2023-03-14T02:58:25.322Z,9.00
2023-03-14T03:00:56.235Z,8.55
2023-03-14T03:03:23.725Z,8.66
2023-03-14T03:05:57.030Z,10.59
2023-03-14T03:08:27.154Z,10.81
2023-03-14T03:10:55.269Z,9.88
2023-03-14T03:13:22.230Z,9.06
2023-03-14T03:15:51.847Z,8.47
2023-03-14T03:18:19.214Z,8.90
2023-03-14T03:20:46.780Z,10.93
2023-03-14T03:23:14.033Z,10.50
2023-03-14T03:25:40.915Z,9.52
2023-03-14T03:28:09.128Z,8.76
2023-03-14T03:30:39.981Z,8.40
2023-03-14T03:33:07.253Z,10.24
2023-03-14T03:35:34.909Z,10.47
2023-03-14T03:38:02.155Z,9.50
2023-03-14T03:40:29.145Z,8.62
2023-03-14T03:42:56.009Z,8.44
2023-03-14T03:45:22.888Z,10.34
2023-03-14T03:47:52.727Z,11.07
2023-03-14T03:50:19.607Z,10.01
2023-03-14T03:52:46.639Z,9.01
2023-03-14T03:55:13.443Z,8.33
2023-03-14T03:57:40.441Z,8.80
2023-03-14T04:00:10.496Z,10.67
2023-03-14T04:02:46.510Z,10.02
2023-03-14T04:05:16.027Z,9.05
2023-03-14T04:07:49.245Z,8.37
2023-03-14T04:10:21.011Z,8.56
2023-03-14T04:13:02.391Z,10.35
2023-03-14T04:15:31.849Z,9.95
2023-03-14T04:18:02.139Z,9.12
2023-03-14T04:20:29.023Z,8.45
2023-03-14T04:22:55.890Z,8.37
2023-03-14T04:25:22.806Z,10.26
2023-03-14T04:27:54.059Z,10.00
2023-03-14T04:30:24.639Z,8.97
2023-03-14T04:32:54.571Z,8.28
2023-03-14T04:35:24.033Z,8.72
2023-03-14T04:37:54.388Z,10.08
2023-03-14T04:40:22.413Z,9.51
2023-03-14T04:42:51.452Z,8.71
2023-03-14T04:45:18.724Z,8.15
2023-03-14T04:47:46.209Z,8.67
2023-03-14T04:50:16.418Z,10.42
2023-03-14T04:52:43.636Z,10.02
2023-03-14T04:55:10.475Z,9.11
2023-03-14T04:57:37.314Z,8.44
2023-03-14T05:00:08.524Z,7.99
2023-03-14T05:02:58.016Z,9.14
2023-03-14T05:05:33.208Z,10.38
2023-03-14T05:08:16.107Z,9.65
2023-03-14T05:11:04.021Z,8.86
2023-03-14T05:13:50.608Z,8.32
2023-03-14T05:16:34.568Z,8.01
2023-03-14T05:19:15.033Z,8.94
2023-03-14T05:22:00.713Z,10.72
2023-03-14T05:24:37.385Z,10.07
2023-03-14T05:27:13.118Z,9.34
2023-03-14T05:30:07.030Z,8.81
2023-03-14T05:32:41.973Z,8.51
2023-03-14T05:35:12.054Z,8.31
2023-03-14T05:38:01.788Z,8.14
2023-03-14T05:40:31.587Z,8.93
2023-03-14T05:43:05.613Z,10.66
2023-03-14T05:45:58.751Z,10.22
2023-03-14T05:48:44.476Z,9.62
2023-03-14T05:51:35.060Z,9.72
2023-03-14T05:54:20.575Z,10.25
2023-03-14T05:56:56.599Z,10.80
2023-03-14T05:59:29.687Z,11.24
2023-03-14T06:02:10.729Z,11.54
2023-03-14T06:04:44.511Z,11.77
2023-03-14T06:07:11.392Z,12.08
2023-03-14T06:09:39.186Z,12.34
2023-03-14T06:12:08.344Z,12.61
2023-03-14T06:14:40.383Z,12.81
2023-03-14T06:17:07.483Z,12.86
2023-03-14T06:19:39.810Z,13.19
2023-03-14T06:22:06.716Z,13.51
2023-03-14T06:24:38.670Z,13.78
2023-03-14T06:27:05.611Z,14.19
2023-03-14T06:29:32.708Z,14.58
2023-03-14T06:32:03.218Z,14.91
2023-03-14T06:34:30.104Z,15.33
2023-03-14T06:36:57.296Z,15.73
2023-03-14T06:39:24.335Z,16.26
2023-03-14T06:41:59.858Z,16.55
2023-03-14T06:44:26.930Z,16.66
2023-03-14T06:46:53.885Z,15.76
2023-03-14T06:49:21.543Z,14.86
2023-03-14T06:51:52.254Z,13.83
2023-03-14T06:54:19.427Z,13.15
2023-03-14T06:56:47.555Z,12.55
2023-03-14T06:59:14.810Z,12.10
2023-03-14T07:01:42.316Z,11.72
2023-03-14T07:04:11.531Z,11.66
2023-03-14T07:06:45.242Z,11.73
2023-03-14T07:09:15.196Z,11.71
2023-03-14T07:11:47.702Z,11.70
2023-03-14T07:14:15.315Z,11.70
2023-03-14T07:16:42.304Z,11.75
2023-03-14T07:19:09.411Z,11.91
2023-03-14T07:21:37.074Z,12.24
2023-03-14T07:24:06.868Z,12.82
2023-03-14T07:26:33.891Z,13.34
2023-03-14T07:29:00.970Z,13.63
2023-03-14T07:31:27.870Z,13.68
2023-03-14T07:33:54.963Z,13.61
2023-03-14T07:36:22.749Z,13.60
2023-03-14T07:38:49.668Z,13.52
2023-03-14T07:41:30.219Z,13.36
2023-03-14T07:44:15.852Z,13.26
2023-03-14T07:46:42.782Z,13.18
2023-03-14T07:49:09.664Z,13.19
2023-03-14T07:51:36.535Z,13.24
2023-03-14T07:54:03.425Z,13.41
2023-03-14T07:56:30.279Z,13.87
2023-03-14T07:58:58.278Z,14.77
2023-03-14T08:01:25.184Z,15.95
2023-03-14T08:03:52.028Z,17.75
2023-03-14T08:06:18.984Z,19.70
2023-03-14T08:08:45.900Z,21.17
2023-03-14T08:11:12.816Z,22.23
2023-03-14T08:13:40.452Z,23.18
2023-03-14T08:16:07.763Z,23.94
2023-03-14T08:18:37.663Z,24.34
2023-03-14T08:21:04.611Z,24.54
2023-03-14T08:23:31.800Z,24.97
2023-03-14T08:25:59.060Z,25.72
2023-03-14T08:28:31.435Z,26.42
2023-03-14T08:30:58.805Z,26.66
2023-03-14T08:33:26.943Z,26.73
2023-03-14T08:35:55.314Z,26.54
2023-03-14T08:38:22.826Z,26.05
2023-03-14T08:40:51.237Z,25.62
2023-03-14T08:43:18.045Z,25.64
2023-03-14T08:45:44.884Z,25.75
2023-03-14T08:48:11.680Z,25.90
2023-03-14T08:50:38.617Z,25.99
2023-03-14T08:53:05.674Z,26.13
2023-03-14T08:55:33.212Z,25.84
2023-03-14T08:58:00.178Z,25.88
2023-03-14T09:00:27.208Z,26.19
2023-03-14T09:02:54.140Z,26.61
2023-03-14T09:05:21.249Z,26.94
2023-03-14T09:07:50.677Z,27.16
2023-03-14T09:10:17.958Z,27.34
2023-03-14T09:12:44.940Z,27.76
2023-03-14T09:15:12.088Z,28.24
2023-03-14T09:17:38.971Z,28.63
2023-03-14T09:20:10.160Z,28.92
2023-03-14T09:22:37.569Z,29.30
2023-03-14T09:25:05.905Z,29.66
2023-03-14T09:27:32.852Z,29.55
2023-03-14T09:29:59.735Z,29.49
2023-03-14T09:32:26.795Z,29.58
2023-03-14T09:34:53.799Z,29.76
2023-03-14T09:37:21.384Z,29.57
2023-03-14T09:39:48.366Z,29.10
2023-03-14T09:42:20.480Z,29.22
2023-03-14T09:44:54.522Z,29.42
2023-03-14T09:47:22.962Z,29.56
2023-03-14T09:49:49.995Z,29.37
2023-03-14T09:52:20.347Z,29.18
2023-03-14T09:54:58.492Z,28.91
2023-03-14T09:57:27.917Z,28.22
2023-03-14T10:00:00.064Z,27.91
2023-03-14T10:02:36.488Z,27.90
2023-03-14T10:05:09.642Z,27.77
2023-03-14T10:07:36.601Z,27.10
2023-03-14T10:10:16.973Z,26.07
2023-03-14T10:12:49.189Z,25.61
2023-03-14T10:15:26.382Z,25.36
2023-03-14T10:17:53.828Z,25.22
2023-03-14T10:20:28.689Z,25.28
2023-03-14T10:22:56.596Z,25.73
2023-03-14T10:25:35.985Z,26.33
2023-03-14T10:28:04.890Z,26.69
2023-03-14T10:30:39.946Z,26.62
2023-03-14T10:33:28.819Z,26.07
2023-03-14T10:36:01.578Z,24.82
2023-03-14T10:38:34.073Z,23.97
2023-03-14T10:41:02.293Z,23.52
2023-03-14T10:43:35.393Z,23.40
2023-03-14T10:46:09.659Z,23.37
2023-03-14T10:48:56.682Z,22.87
2023-03-14T10:51:29.609Z,22.40
2023-03-14T10:54:12.783Z,22.85
2023-03-14T10:56:39.708Z,23.95
2023-03-14T10:59:15.749Z,24.83
2023-03-14T11:01:45.964Z,25.49
2023-03-14T11:04:49.877Z,25.95
2023-03-14T11:07:30.469Z,26.49
2023-03-14T11:10:12.954Z,26.60
2023-03-14T11:13:09.055Z,26.05
2023-03-14T11:15:44.011Z,25.12
2023-03-14T11:18:29.277Z,24.18
2023-03-14T11:21:19.574Z,23.02
2023-03-14T11:24:01.457Z,21.83
2023-03-14T11:26:31.339Z,20.91
2023-03-14T11:29:24.262Z,20.13
2023-03-14T11:31:56.415Z,19.44
2023-03-14T11:34:48.241Z,18.95
2023-03-14T11:37:15.227Z,18.51
2023-03-14T11:39:49.431Z,18.07
2023-03-14T11:42:18.563Z,17.79
2023-03-14T11:44:49.077Z,17.62
2023-03-14T11:47:25.868Z,17.48
2023-03-14T11:50:27.001Z,17.49
2023-03-14T11:52:59.746Z,17.63
2023-03-14T11:55:31.791Z,17.74
2023-03-14T11:58:14.644Z,17.84
2023-03-14T12:00:43.321Z,17.86
2023-03-14T12:03:25.459Z,17.86
2023-03-14T12:06:11.900Z,17.88
2023-03-14T12:08:47.303Z,17.76
2023-03-14T12:11:14.608Z,17.60
2023-03-14T12:13:47.177Z,17.51
2023-03-14T12:16:26.027Z,17.54
2023-03-14T12:18:54.497Z,17.61
2023-03-14T12:21:41.888Z,17.63
2023-03-14T12:24:21.551Z,17.47
2023-03-14T12:26:57.970Z,17.25
2023-03-14T12:29:26.100Z,17.06
2023-03-14T12:32:01.932Z,16.88
2023-03-14T12:34:31.762Z,16.71
2023-03-14T12:37:26.924Z,16.63
2023-03-14T12:40:20.391Z,16.55
2023-03-14T12:43:00.492Z,16.45
2023-03-14T12:45:32.485Z,16.37
2023-03-14T12:48:26.238Z,16.37
2023-03-14T12:51:13.465Z,16.43
2023-03-14T12:54:14.764Z,16.40
2023-03-14T12:56:52.304Z,16.30
2023-03-14T12:59:41.927Z,16.28
2023-03-14T13:02:09.218Z,16.31
2023-03-14T13:04:45.901Z,16.32
2023-03-14T13:07:34.440Z,16.32
2023-03-14T13:13:02.743Z,16.27
2023-03-14T13:15:35.791Z,16.30
2023-03-14T13:18:11.354Z,16.32
2023-03-14T13:20:44.177Z,16.26
2023-03-14T13:23:25.805Z,16.17
2023-03-14T13:25:53.968Z,16.08
2023-03-14T13:28:21.640Z,15.91
2023-03-14T13:30:51.530Z,15.74
2023-03-14T13:33:21.450Z,15.56
2023-03-14T13:35:50.237Z,15.42
2023-03-14T13:38:26.031Z,15.27
2023-03-14T13:41:00.588Z,15.04
2023-03-14T13:43:33.591Z,14.88
2023-03-14T13:46:08.354Z,14.72
2023-03-14T13:48:44.389Z,14.51
2023-03-14T13:51:14.701Z,14.29
2023-03-14T13:53:51.779Z,14.04
2023-03-14T13:56:20.466Z,13.79
2023-03-14T13:58:47.745Z,13.58
2023-03-14T14:01:36.358Z,13.43
2023-03-14T14:04:16.312Z,13.29
2023-03-14T14:06:49.403Z,13.16
2023-03-14T14:09:22.028Z,13.05
2023-03-14T14:12:14.429Z,13.00
2023-03-14T14:14:51.355Z,14.24
2023-03-14T14:17:34.240Z,15.74
2023-03-14T14:20:05.840Z,15.11
2023-03-14T14:22:34.021Z,14.39
2023-03-14T14:25:03.071Z,13.86
2023-03-14T14:27:40.448Z,13.48
2023-03-14T14:30:19.614Z,13.96
2023-03-14T14:32:50.525Z,15.72
2023-03-14T14:35:35.893Z,15.26
2023-03-14T14:38:10.013Z,14.33
2023-03-14T14:40:46.769Z,13.73
2023-03-14T14:43:19.916Z,13.89
2023-03-14T14:45:51.154Z,15.69
2023-03-14T14:48:22.783Z,15.99
2023-03-14T14:50:58.456Z,15.15
2023-03-14T14:53:45.775Z,14.36
2023-03-14T14:56:23.662Z,13.90
2023-03-14T14:58:50.779Z,15.18
2023-03-14T15:01:24.284Z,16.39
2023-03-14T15:03:54.223Z,15.80
2023-03-14T15:06:21.799Z,14.82
2023-03-14T15:08:50.196Z,14.60
2023-03-14T15:11:20.455Z,16.07
2023-03-14T15:13:50.483Z,16.46
2023-03-14T15:16:21.776Z,15.41
2023-03-14T15:19:03.273Z,14.77
2023-03-14T15:21:34.819Z,16.42
2023-03-14T15:24:02.246Z,16.90
2023-03-14T15:26:30.504Z,15.58
2023-03-14T15:28:57.711Z,14.53
2023-03-14T15:31:24.814Z,15.30
2023-03-14T15:33:51.953Z,16.54
2023-03-14T15:36:28.772Z,15.94
2023-03-14T15:38:57.123Z,14.76
2023-03-14T15:41:24.534Z,14.37
2023-03-14T15:43:52.609Z,15.89
2023-03-14T15:46:20.137Z,16.49
2023-03-14T15:48:47.483Z,15.50
2023-03-14T15:51:15.209Z,14.46
2023-03-14T15:53:44.412Z,14.51
2023-03-14T15:56:17.507Z,16.10
2023-03-14T15:58:47.736Z,16.16
2023-03-14T16:01:17.323Z,15.05
2023-03-14T16:03:46.374Z,14.10
2023-03-14T16:06:14.790Z,14.51
2023-03-14T16:08:43.618Z,16.02
2023-03-14T16:11:12.695Z,15.74
2023-03-14T16:13:40.170Z,14.66
2023-03-14T16:16:08.866Z,14.21
2023-03-14T16:18:38.644Z,15.58
2023-03-14T16:21:18.295Z,16.25
2023-03-14T16:23:46.426Z,15.21
2023-03-14T16:26:19.281Z,14.11
2023-03-14T16:28:48.319Z,14.24
2023-03-14T16:31:18.711Z,15.86
2023-03-14T16:33:45.960Z,15.13
2023-03-14T16:36:14.726Z,14.02
2023-03-14T16:38:43.919Z,14.51
2023-03-14T16:41:20.114Z,15.72
2023-03-14T16:43:52.318Z,15.00
2023-03-14T16:46:22.778Z,13.93
2023-03-14T16:48:50.126Z,13.93
2023-03-14T16:51:17.848Z,15.56
2023-03-14T16:53:46.342Z,15.63
2023-03-14T16:56:14.650Z,14.50
2023-03-14T16:58:42.696Z,13.71
2023-03-14T17:01:12.721Z,15.13
2023-03-14T17:03:45.724Z,15.88
2023-03-14T17:06:15.607Z,14.65
2023-03-14T17:08:43.398Z,13.58
2023-03-14T17:11:11.359Z,14.05
2023-03-14T17:13:39.354Z,15.51
2023-03-14T17:16:07.189Z,15.18
2023-03-14T17:18:36.848Z,14.12
2023-03-14T17:21:05.046Z,13.55
2023-03-14T17:23:33.525Z,14.90
2023-03-14T17:26:00.978Z,15.82
2023-03-14T17:28:28.376Z,14.93
2023-03-14T17:31:09.783Z,13.82
2023-03-14T17:33:37.558Z,13.48
2023-03-14T17:36:08.296Z,15.10
2023-03-14T17:38:36.962Z,15.45
2023-03-14T17:41:08.057Z,14.53
2023-03-14T17:43:35.466Z,13.56
2023-03-14T17:46:14.643Z,13.34
2023-03-14T17:48:43.211Z,15.13
2023-03-14T17:51:11.470Z,15.34
2023-03-14T17:53:39.365Z,14.24
2023-03-14T17:56:07.545Z,13.36
2023-03-14T17:58:37.786Z,13.22
2023-03-14T18:01:19.747Z,15.00
2023-03-14T18:03:48.365Z,15.87
2023-03-14T18:06:17.970Z,14.82
2023-03-14T18:08:46.991Z,13.72
2023-03-14T18:11:14.426Z,12.93
2023-03-14T18:13:42.403Z,13.20
2023-03-14T18:16:15.516Z,14.97
2023-03-14T18:18:49.525Z,14.58
2023-03-14T18:21:19.958Z,13.56
2023-03-14T18:23:48.935Z,12.84
2023-03-14T18:26:16.129Z,13.78
2023-03-14T18:28:43.235Z,15.51
2023-03-14T18:31:13.284Z,14.90
2023-03-14T18:33:45.608Z,13.86
2023-03-14T18:36:13.293Z,13.10
2023-03-14T18:38:43.874Z,13.04
2023-03-14T18:41:14.161Z,14.93
2023-03-14T18:43:42.300Z,15.07
2023-03-14T18:46:12.895Z,14.11
2023-03-14T18:48:42.757Z,13.31
2023-03-14T18:51:15.593Z,12.82
2023-03-14T18:53:43.756Z,14.19
2023-03-14T18:56:14.089Z,15.48
2023-03-14T18:58:41.878Z,14.67
2023-03-14T19:01:10.632Z,13.73
2023-03-14T19:03:38.104Z,13.01
2023-03-14T19:06:07.953Z,13.04
2023-03-14T19:08:36.801Z,14.93
2023-03-14T19:11:06.178Z,14.79
2023-03-14T19:13:35.341Z,13.74
2023-03-14T19:16:04.372Z,12.90
2023-03-14T19:18:33.420Z,12.96
2023-03-14T19:21:09.167Z,14.66
2023-03-14T19:23:38.328Z,14.21
2023-03-14T19:26:07.113Z,13.20
2023-03-14T19:28:34.248Z,12.51
2023-03-14T19:31:05.498Z,13.80
2023-03-14T19:33:33.237Z,15.02
2023-03-14T19:36:02.785Z,14.11
2023-03-14T19:38:29.987Z,13.05
2023-03-14T19:40:59.028Z,12.58
2023-03-14T19:43:27.014Z,14.24
2023-03-14T19:45:56.062Z,14.40
2023-03-14T19:48:30.720Z,13.30
2023-03-14T19:51:00.300Z,12.44
2023-03-14T19:53:29.229Z,13.43
2023-03-14T19:55:56.366Z,14.52
2023-03-14T19:58:25.051Z,13.68
2023-03-14T20:00:52.365Z,12.65
2023-03-14T20:03:19.649Z,12.86
2023-03-14T20:05:46.762Z,14.31
2023-03-14T20:08:13.984Z,13.76
2023-03-14T20:10:41.449Z,12.73
2023-03-14T20:13:20.845Z,12.45
2023-03-14T20:15:48.832Z,14.21
2023-03-14T20:18:15.814Z,14.25
2023-03-14T20:20:42.912Z,13.20
2023-03-14T20:23:10.631Z,12.39
2023-03-14T20:25:38.082Z,13.19
2023-03-14T20:28:05.569Z,14.33
2023-03-14T20:30:33.390Z,13.58
2023-03-14T20:33:04.890Z,12.59
2023-03-14T20:35:32.598Z,12.47
2023-03-14T20:37:59.713Z,14.03
2023-03-14T20:40:28.995Z,14.13
2023-03-14T20:42:56.858Z,13.05
2023-03-14T20:45:23.842Z,12.31
2023-03-14T20:47:51.212Z,13.53
2023-03-14T20:50:18.457Z,14.44
2023-03-14T20:52:45.560Z,13.46
2023-03-14T20:55:12.991Z,12.40
2023-03-14T20:57:39.867Z,12.74
2023-03-14T21:00:08.426Z,14.05
2023-03-14T21:05:20.593Z,12.35
2023-03-14T21:07:48.082Z,12.78
2023-03-14T21:10:15.360Z,14.14
2023-03-14T21:12:42.494Z,13.68
2023-03-14T21:15:10.403Z,12.62
2023-03-14T21:17:39.731Z,12.47
2023-03-14T21:20:11.597Z,13.99
2023-03-14T21:22:38.925Z,14.45
2023-03-14T21:25:09.425Z,13.42
2023-03-14T21:27:39.964Z,12.44
2023-03-14T21:30:08.556Z,13.43
2023-03-14T21:32:35.524Z,14.22
2023-03-14T21:35:02.564Z,13.24
2023-03-14T21:37:29.583Z,12.26
2023-03-14T21:39:56.813Z,12.97
2023-03-14T21:42:24.677Z,14.09
2023-03-14T21:44:52.439Z,13.37
2023-03-14T21:47:23.832Z,12.37
2023-03-14T21:49:52.127Z,13.08
2023-03-14T21:52:19.097Z,14.28
2023-03-14T21:54:46.050Z,13.48
2023-03-14T21:57:14.818Z,12.39
2023-03-14T21:59:44.253Z,13.06
2023-03-14T22:02:15.272Z,14.21
2023-03-14T22:04:45.452Z,13.49
2023-03-14T22:07:17.334Z,12.38
2023-03-14T22:09:46.062Z,12.82
2023-03-14T22:12:19.940Z,14.18
2023-03-14T22:14:48.360Z,13.52
2023-03-14T22:17:16.370Z,12.40
2023-03-14T22:19:43.687Z,12.74
2023-03-14T22:22:10.733Z,14.07
2023-03-14T22:24:37.791Z,13.73
2023-03-14T22:27:05.082Z,12.67
2023-03-14T22:29:37.906Z,12.57
2023-03-14T22:32:06.729Z,13.98
2023-03-14T22:34:36.724Z,14.37
2023-03-14T22:37:06.268Z,13.36
2023-03-14T22:39:33.966Z,12.43
2023-03-14T22:42:01.387Z,13.07
2023-03-14T22:44:33.217Z,14.10
2023-03-14T22:47:02.543Z,13.46
2023-03-14T22:49:33.196Z,12.46
2023-03-14T22:52:00.143Z,12.29
2023-03-14T22:54:28.054Z,13.83
2023-03-14T22:56:55.017Z,14.04
2023-03-14T22:59:21.982Z,13.02
2023-03-14T23:01:48.939Z,12.77
2023-03-14T23:04:16.080Z,14.40
2023-03-14T23:06:43.182Z,14.75
2023-03-14T23:09:12.229Z,13.56
2023-03-14T23:11:40.296Z,12.57
2023-03-14T23:14:07.779Z,13.08
2023-03-14T23:16:40.622Z,14.58
2023-03-14T23:19:10.017Z,14.05
2023-03-14T23:21:37.367Z,13.00
2023-03-14T23:24:06.295Z,12.76
2023-03-14T23:26:35.645Z,14.52
2023-03-14T23:29:07.402Z,14.14
2023-03-14T23:31:34.576Z,13.07
2023-03-14T23:34:01.541Z,12.77
2023-03-14T23:36:28.388Z,14.59
2023-03-14T23:38:55.261Z,14.86
2023-03-14T23:41:22.205Z,13.78
2023-03-14T23:43:49.418Z,12.78
2023-03-14T23:46:17.394Z,13.08
2023-03-14T23:48:47.330Z,14.95
2023-03-14T23:51:15.519Z,14.99
2023-03-14T23:53:43.107Z,13.84
2023-03-14T23:56:12.808Z,12.86
2023-03-14T23:58:41.051Z,12.81
